Hinkle, Mississippi
Current Conditions -  °F | °C
As of 4:35 AM on Thursday 18 Dec 2014 (Local Time) from KCRX Reporting Station
Light Rain Light Rain  
Wind Chill: 39°   Ceiling: 7500
Heat Index: 39°   Visibility: 9mi
Dew Point: 34°   Wind: 0mph
Humidity: 81%   Direction: NA
Pressure: 30.21"   Gusts: NA
Location:  34.7969°N, 88.6031°W
Report Text: KCRX 181035Z AUTO 00000KT 9SM -RA SCT055 BKN075 OVC095 04/01 A3021 RMK AO2
Loading
Personal Weather Stations






























Interactive Weather Map New forecast layout! Learn more

10-Day Weather Forecast

Advertisements
Track Severe Weather on mobile